Time;durP1;ratioP1;P1;durP2;ratioP2;P2;SDS_P1;SDS_P2;PMS_P1;PMS_P2;Temp;Humidity;BMP_temperature;BMP_pressure;BME280_temperature;BME280_humidity;BME280_pressure;Samples;Min_cycle;Max_cycle;Signal;HPM_P1;HPM_P2
2022/08/12 00:44:21;;;;;;;5.40;3.60;;;22.00;52.50;;;;;;5053501;28;20409;-57
2022/08/12 00:46:51;;;;;;;4.80;3.80;;;22.00;52.50;;;;;;5053721;28;20451;-56
2022/08/12 00:49:20;;;;;;;4.20;3.83;;;21.90;52.70;;;;;;5053279;28;20430;-57
2022/08/12 00:52:12;;;;;;;4.23;3.83;;;21.90;52.60;;;;;;5053494;28;20476;-57
2022/08/12 00:54:43;;;;;;;7.53;3.90;;;21.90;53.00;;;;;;5053465;28;20504;-56
2022/08/12 00:57:13;;;;;;;3.67;3.37;;;21.90;52.90;;;;;;5053212;28;20441;-57
2022/08/12 00:59:47;;;;;;;6.00;3.60;;;21.80;52.80;;;;;;5053251;28;20430;-56
2022/08/12 01:02:23;;;;;;;6.00;4.00;;;21.80;53.20;;;;;;5053352;28;20894;-56
2022/08/12 01:13:14;;;;;;;4.50;4.10;;;21.60;53.60;;;;;;5053216;28;20870;-57
2022/08/12 01:15:41;;;;;;;5.70;4.07;;;21.50;53.90;;;;;;5052794;28;20957;-57
2022/08/12 01:18:09;;;;;;;3.63;3.33;;;21.50;54.10;;;;;;5053176;28;20452;-57
2022/08/12 01:20:41;;;;;;;5.57;3.63;;;21.40;54.20;;;;;;5052965;28;20564;-56
2022/08/12 01:23:39;;;;;;;5.37;4.00;;;21.40;54.30;;;;;;5053209;28;20426;-56
2022/08/12 01:26:11;;;;;;;4.80;3.80;;;21.40;54.60;;;;;;5053015;28;20883;-56
2022/08/12 01:28:41;;;;;;;3.37;3.10;;;21.40;54.50;;;;;;5052961;28;20417;-56
2022/08/12 01:31:09;;;;;;;5.20;3.60;;;21.40;55.10;;;;;;5053029;28;20479;-56
2022/08/12 01:33:43;;;;;;;4.07;3.53;;;21.30;54.80;;;;;;5053182;28;20891;-56
2022/08/12 01:36:12;;;;;;;4.03;3.63;;;21.20;55.10;;;;;;5052911;28;20433;-56
2022/08/12 01:38:42;;;;;;;4.60;4.10;;;21.40;55.30;;;;;;5052676;28;20449;-56
2022/08/12 01:41:16;;;;;;;4.47;3.70;;;21.30;55.20;;;;;;5052539;28;20496;-57
2022/08/12 01:43:44;;;;;;;5.53;3.67;;;21.40;55.30;;;;;;5053060;28;20479;-57
2022/08/12 01:46:25;;;;;;;8.23;3.40;;;21.40;55.30;;;;;;5052708;28;20930;-57
2022/08/12 01:49:07;;;;;;;4.07;3.77;;;21.40;55.30;;;;;;5052585;28;20521;-56
2022/08/12 01:51:42;;;;;;;7.20;4.83;;;21.30;55.60;;;;;;5052828;28;20465;-56
2022/08/12 01:54:11;;;;;;;3.97;3.67;;;21.00;55.80;;;;;;5052889;28;20555;-57
2022/08/12 01:56:47;;;;;;;3.60;3.33;;;20.80;56.20;;;;;;5052850;28;20457;-56
2022/08/12 02:02:09;;;;;;;3.63;3.33;;;20.70;56.60;;;;;;5054268;28;20915;-56
2022/08/12 02:13:49;;;;;;;4.40;4.00;;;20.80;57.10;;;;;;5056309;28;20491;-56
2022/08/12 02:16:29;;;;;;;4.07;3.67;;;20.70;57.00;;;;;;5056519;28;20599;-57
2022/08/12 02:19:10;;;;;;;5.10;3.63;;;20.80;57.30;;;;;;5056153;28;20967;-56
2022/08/12 02:21:42;;;;;;;4.80;3.83;;;20.80;57.10;;;;;;5056380;28;20850;-56
2022/08/12 02:24:13;;;;;;;5.63;3.67;;;21.00;57.00;;;;;;5056359;28;20476;-57
2022/08/12 02:26:43;;;;;;;3.80;3.47;;;20.90;57.10;;;;;;5056542;28;20432;-56
2022/08/12 02:29:14;;;;;;;4.20;3.53;;;20.80;57.50;;;;;;5055898;28;20544;-57
2022/08/12 02:31:44;;;;;;;7.50;3.60;;;20.60;57.30;;;;;;5056101;28;20469;-56
2022/08/12 02:34:15;;;;;;;4.33;3.20;;;20.40;57.60;;;;;;5056029;28;20484;-57
2022/08/12 02:36:45;;;;;;;3.73;3.43;;;20.60;57.80;;;;;;5056373;28;20434;-57
2022/08/12 02:39:15;;;;;;;4.50;3.80;;;20.70;57.70;;;;;;5055882;28;20504;-55
2022/08/12 02:41:45;;;;;;;5.60;3.50;;;20.80;57.40;;;;;;5055545;28;20544;-57
2022/08/12 02:44:18;;;;;;;4.50;3.63;;;20.80;57.70;;;;;;5056112;28;20426;-56
2022/08/12 02:46:49;;;;;;;5.40;4.13;;;20.80;57.40;;;;;;5055560;28;20429;-56
2022/08/12 02:49:22;;;;;;;4.00;3.70;;;20.80;57.40;;;;;;5055921;28;20439;-56
2022/08/12 02:51:50;;;;;;;5.17;3.23;;;20.70;57.80;;;;;;5055639;28;20899;-57
2022/08/12 02:54:17;;;;;;;3.80;3.50;;;20.70;57.60;;;;;;5055474;28;20989;-57
2022/08/12 02:56:44;;;;;;;4.17;3.77;;;20.60;57.90;;;;;;5055916;28;20449;-57
2022/08/12 02:59:16;;;;;;;4.10;3.70;;;20.60;58.10;;;;;;5055591;28;20451;-57
2022/08/12 03:01:48;;;;;;;4.10;3.70;;;20.50;58.30;;;;;;5055289;28;20472;-57
2022/08/12 03:04:25;;;;;;;7.50;3.83;;;20.40;58.20;;;;;;5055459;28;20480;-57
2022/08/12 03:07:02;;;;;;;5.30;3.80;;;20.50;58.30;;;;;;5055698;28;20437;-56
2022/08/12 03:09:35;;;;;;;3.77;3.23;;;20.30;58.60;;;;;;5055244;28;21376;-56
2022/08/12 03:12:08;;;;;;;5.33;3.20;;;20.40;58.40;;;;;;5055177;28;20514;-56
2022/08/12 03:14:41;;;;;;;4.00;3.70;;;20.40;58.70;;;;;;5055333;28;20469;-57
2022/08/12 03:17:15;;;;;;;4.20;3.80;;;20.30;58.90;;;;;;5055695;28;20483;-57
2022/08/12 03:19:45;;;;;;;4.23;3.83;;;20.20;59.10;;;;;;5055348;28;20525;-57
2022/08/12 03:22:13;;;;;;;4.40;4.00;;;20.00;59.30;;;;;;5055222;28;20454;-56
2022/08/12 03:24:43;;;;;;;4.23;3.90;;;20.10;59.30;;;;;;5055195;28;20472;-57
2022/08/12 03:27:14;;;;;;;4.57;3.80;;;20.20;59.20;;;;;;5055442;28;20828;-57
2022/08/12 03:29:46;;;;;;;5.30;4.20;;;20.20;59.10;;;;;;5055073;28;20438;-56
2022/08/12 03:32:14;;;;;;;6.50;4.57;;;20.20;59.10;;;;;;5055090;28;20430;-57
2022/08/12 03:34:44;;;;;;;4.83;4.10;;;20.10;59.10;;;;;;5054850;28;21041;-57
2022/08/12 03:37:12;;;;;;;5.30;4.17;;;20.00;59.40;;;;;;5055082;28;20445;-57
2022/08/12 03:39:44;;;;;;;5.07;3.90;;;20.00;59.50;;;;;;5054495;28;21028;-57
2022/08/12 03:42:24;;;;;;;4.30;3.50;;;20.00;59.40;;;;;;5054871;28;20853;-56
2022/08/12 04:01:56;;;;;;;4.70;3.70;;;19.80;61.20;;;;;;5054307;28;20444;-57
2022/08/12 04:04:26;;;;;;;4.30;3.90;;;19.60;62.00;;;;;;5054486;28;20504;-57
2022/08/12 04:06:53;;;;;;;5.17;3.57;;;19.50;62.20;;;;;;5054686;28;20445;-58
2022/08/12 04:09:22;;;;;;;4.00;3.60;;;19.30;62.70;;;;;;5054356;28;20449;-56
2022/08/12 04:14:37;;;;;;;4.90;4.20;;;19.20;63.10;;;;;;5012173;28;20461;-57
2022/08/12 04:17:07;;;;;;;4.20;3.80;;;19.20;63.40;;;;;;5053892;28;20481;-56
2022/08/12 04:19:34;;;;;;;7.03;3.80;;;19.20;63.00;;;;;;5053821;28;20816;-56
2022/08/12 04:22:02;;;;;;;4.30;3.70;;;19.30;63.30;;;;;;5053758;28;20465;-57
2022/08/12 04:24:33;;;;;;;4.53;3.60;;;19.20;63.10;;;;;;5052786;28;20445;-56
2022/08/12 04:27:00;;;;;;;3.90;3.60;;;19.50;63.10;;;;;;5053496;28;20433;-56
2022/08/12 04:29:28;;;;;;;3.90;3.60;;;19.50;62.50;;;;;;5053745;28;20950;-56
2022/08/12 04:31:55;;;;;;;4.07;3.77;;;19.40;63.40;;;;;;5053573;28;20480;-57
2022/08/12 04:34:24;;;;;;;4.77;4.13;;;19.20;63.70;;;;;;5053443;28;20511;-57
2022/08/12 04:36:52;;;;;;;6.50;4.10;;;19.10;64.40;;;;;;5053991;28;20452;-56
2022/08/12 04:39:22;;;;;;;5.10;4.00;;;19.10;65.40;;;;;;5053723;28;20551;-56
2022/08/12 04:41:49;;;;;;;4.40;4.03;;;19.10;65.10;;;;;;5053344;28;20454;-56
2022/08/12 04:44:17;;;;;;;3.80;3.50;;;19.00;64.80;;;;;;5053812;28;20548;-57
2022/08/12 04:46:44;;;;;;;4.17;3.70;;;18.90;65.50;;;;;;5053376;28;20429;-56
2022/08/12 04:49:12;;;;;;;6.00;4.23;;;19.00;65.60;;;;;;5053621;28;20525;-57
2022/08/12 04:51:41;;;;;;;4.47;4.07;;;19.00;65.60;;;;;;5053577;28;20470;-56
2022/08/12 04:54:08;;;;;;;4.70;4.10;;;18.90;65.90;;;;;;5053665;28;20488;-56
2022/08/12 04:56:36;;;;;;;3.90;3.60;;;19.10;66.30;;;;;;5053207;28;20453;-57
2022/08/12 04:59:04;;;;;;;5.20;3.30;;;19.30;65.90;;;;;;5053547;28;20990;-56
2022/08/12 05:01:31;;;;;;;3.97;3.67;;;19.40;65.80;;;;;;5053088;28;20969;-57
2022/08/12 05:04:01;;;;;;;4.40;4.00;;;19.50;65.40;;;;;;5052957;28;20446;-57
2022/08/12 05:06:28;;;;;;;4.43;3.80;;;19.50;65.30;;;;;;5053174;28;20498;-56
2022/08/12 05:08:59;;;;;;;4.00;3.60;;;19.50;65.70;;;;;;5053423;28;20479;-56
2022/08/12 05:11:26;;;;;;;6.47;3.73;;;19.60;65.90;;;;;;5053486;28;20477;-56
2022/08/12 05:13:59;;;;;;;4.20;3.80;;;19.60;65.70;;;;;;5053226;28;20484;-56
2022/08/12 05:16:26;;;;;;;4.17;3.73;;;19.60;66.00;;;;;;5053199;28;20784;-56
2022/08/12 05:18:54;;;;;;;6.00;3.50;;;19.70;65.20;;;;;;5053010;28;20445;-57
2022/08/12 05:21:21;;;;;;;4.60;4.10;;;19.70;64.80;;;;;;5053040;28;20546;-56
2022/08/12 05:23:48;;;;;;;6.77;3.63;;;19.70;63.00;;;;;;5052676;28;20476;-57
2022/08/12 05:26:17;;;;;;;4.63;4.20;;;19.70;64.00;;;;;;5053173;28;20449;-56
2022/08/12 05:28:45;;;;;;;5.27;4.13;;;19.90;64.20;;;;;;5052932;28;20983;-56
2022/08/12 05:31:12;;;;;;;4.03;3.60;;;19.90;62.80;;;;;;5053029;28;20821;-56
2022/08/12 05:33:39;;;;;;;4.40;4.00;;;19.90;64.30;;;;;;5052754;28;20452;-56
2022/08/12 05:36:08;;;;;;;4.77;3.40;;;19.90;64.50;;;;;;5054392;28;20568;-57
2022/08/12 05:41:23;;;;;;;5.90;3.67;;;20.10;64.00;;;;;;5057178;28;20991;-57
2022/08/12 05:43:52;;;;;;;3.73;3.43;;;20.00;63.10;;;;;;5057132;28;20491;-57
2022/08/12 05:46:20;;;;;;;5.60;3.63;;;20.10;63.20;;;;;;5056708;28;20941;-56
2022/08/12 05:48:48;;;;;;;4.17;3.77;;;20.20;62.70;;;;;;5056378;28;20473;-56
2022/08/12 05:51:15;;;;;;;4.13;3.73;;;20.40;62.10;;;;;;5056456;28;21031;-57
2022/08/12 05:53:43;;;;;;;7.03;4.20;;;20.70;61.00;;;;;;5056554;28;20488;-57
2022/08/12 05:56:21;;;;;;;4.10;3.60;;;20.70;60.60;;;;;;5056768;28;20893;-57
2022/08/12 05:58:50;;;;;;;5.87;4.13;;;20.80;61.00;;;;;;5056538;28;20438;-56
2022/08/12 06:01:18;;;;;;;3.70;3.40;;;20.70;60.60;;;;;;5056684;28;20799;-57
2022/08/12 06:03:46;;;;;;;3.73;3.43;;;;;;;;;;5056686;28;20477;-56
2022/08/12 06:06:17;;;;;;;5.87;3.77;;;20.90;59.60;;;;;;5056394;28;20487;-56
2022/08/12 06:08:47;;;;;;;4.97;3.50;;;21.10;59.70;;;;;;5056243;28;20426;-56
2022/08/12 06:11:15;;;;;;;4.00;3.53;;;21.20;59.70;;;;;;5056816;28;20480;-57
2022/08/12 06:13:44;;;;;;;3.80;3.43;;;21.20;59.30;;;;;;5055950;28;20449;-57
2022/08/12 06:16:14;;;;;;;5.13;4.30;;;21.20;59.30;;;;;;5056120;28;20524;-56
2022/08/12 06:18:42;;;;;;;3.83;3.53;;;21.30;59.30;;;;;;5056469;28;20503;-57
2022/08/12 06:21:11;;;;;;;5.23;3.83;;;21.30;59.60;;;;;;5056034;28;20468;-56
2022/08/12 06:23:39;;;;;;;5.67;4.00;;;21.30;59.40;;;;;;5055704;28;20947;-56
2022/08/12 06:26:11;;;;;;;4.43;4.03;;;21.40;59.30;;;;;;5056128;28;20445;-56
2022/08/12 06:28:39;;;;;;;7.40;3.70;;;21.40;59.30;;;;;;5055979;28;20430;-57
2022/08/12 06:31:08;;;;;;;5.40;4.33;;;21.40;59.30;;;;;;5055875;28;20806;-57
2022/08/12 06:33:36;;;;;;;5.13;3.80;;;21.40;59.20;;;;;;5055902;28;20815;-57
2022/08/12 06:36:04;;;;;;;5.93;3.80;;;21.50;59.00;;;;;;5056014;28;20492;-57
2022/08/12 06:38:31;;;;;;;5.40;4.50;;;21.50;58.90;;;;;;5055439;28;20448;-57
2022/08/12 06:43:50;;;;;;;4.90;4.40;;;21.80;58.60;;;;;;5055579;28;20405;-57
2022/08/12 06:46:20;;;;;;;4.03;3.73;;;22.00;58.20;;;;;;5055414;28;20429;-56
2022/08/12 06:48:48;;;;;;;4.33;3.93;;;21.90;58.10;;;;;;5054703;28;20489;-57
2022/08/12 06:51:18;;;;;;;6.87;4.13;;;22.00;58.30;;;;;;5055137;28;20505;-57
2022/08/12 06:53:45;;;;;;;4.30;3.60;;;22.10;58.30;;;;;;5055351;28;20464;-56
2022/08/12 06:56:13;;;;;;;3.63;3.30;;;22.10;58.00;;;;;;5055891;28;20890;-56
2022/08/12 06:58:41;;;;;;;4.63;4.10;;;22.10;58.00;;;;;;5055532;28;20503;-57
2022/08/12 07:01:08;;;;;;;4.00;3.40;;;22.10;58.00;;;;;;5054909;28;20470;-58
2022/08/12 07:03:37;;;;;;;4.70;3.67;;;22.10;57.50;;;;;;5055557;28;20479;-56
2022/08/12 07:06:09;;;;;;;7.60;3.93;;;22.10;57.60;;;;;;5055267;28;20995;-56
2022/08/12 07:08:36;;;;;;;4.77;4.37;;;22.20;57.50;;;;;;5054932;28;20444;-56
2022/08/12 07:11:05;;;;;;;6.20;4.10;;;22.30;58.10;;;;;;5055534;28;20500;-56
2022/08/12 07:13:37;;;;;;;3.37;3.13;;;22.40;57.30;;;;;;5055030;28;20450;-56
2022/08/12 07:16:05;;;;;;;5.10;3.40;;;22.50;56.60;;;;;;5054559;28;20559;-56
2022/08/12 07:18:33;;;;;;;4.63;3.97;;;22.50;56.70;;;;;;5054837;28;20499;-57
2022/08/12 07:21:04;;;;;;;3.50;3.20;;;22.60;56.80;;;;;;5055030;28;20596;-57
2022/08/12 07:23:33;;;;;;;4.53;3.60;;;22.60;57.00;;;;;;5054949;28;20460;-57
2022/08/12 07:26:01;;;;;;;3.80;3.23;;;22.50;57.20;;;;;;5055118;28;20878;-56
2022/08/12 07:28:32;;;;;;;4.33;3.00;;;22.60;57.20;;;;;;5055058;28;20449;-56
2022/08/12 07:31:00;;;;;;;6.33;3.30;;;22.50;56.70;;;;;;5054822;28;20469;-56
2022/08/12 07:33:29;;;;;;;4.30;3.70;;;22.60;57.00;;;;;;5054653;28;20499;-56
2022/08/12 07:35:58;;;;;;;3.20;2.97;;;22.70;56.50;;;;;;5054418;28;20514;-56
2022/08/12 07:38:32;;;;;;;5.60;3.40;;;22.80;56.70;;;;;;5054670;28;20515;-57
2022/08/12 07:41:06;;;;;;;4.40;3.30;;;23.00;57.00;;;;;;5054940;28;20473;-56
2022/08/12 07:43:35;;;;;;;4.97;4.00;;;23.10;56.90;;;;;;5054357;28;20426;-56
2022/08/12 07:46:04;;;;;;;6.40;3.80;;;23.20;56.30;;;;;;5054362;28;20960;-56
2022/08/12 07:48:37;;;;;;;3.20;2.90;;;23.10;56.00;;;;;;5054269;28;20553;-56
2022/08/12 07:51:05;;;;;;;4.40;3.70;;;23.20;56.60;;;;;;5054236;28;20508;-56
2022/08/12 07:53:34;;;;;;;4.10;3.30;;;23.30;56.00;;;;;;5054605;28;20456;-56
2022/08/12 07:56:02;;;;;;;4.27;3.20;;;23.20;55.90;;;;;;5054523;28;20546;-56
2022/08/12 07:58:29;;;;;;;3.47;3.17;;;23.30;55.70;;;;;;5054172;28;20550;-56
2022/08/12 08:00:59;;;;;;;3.43;3.10;;;23.40;56.00;;;;;;5053292;28;20476;-56
2022/08/12 08:03:26;;;;;;;8.50;3.83;;;23.70;55.50;;;;;;5054092;28;20449;-56
2022/08/12 08:05:54;;;;;;;3.80;2.90;;;24.40;55.40;;;;;;5054416;28;20449;-56
2022/08/12 08:08:23;;;;;;;6.40;4.50;;;25.60;54.30;;;;;;5054086;28;20437;-56
2022/08/12 08:12:52;;;;;;;7.23;3.33;;;26.50;52.70;;;;;;5054225;28;20488;-56
2022/08/12 08:13:41;;;;;;;10.20;3.33;;;26.70;52.40;;;;;;5053898;28;20418;-56
2022/08/12 08:16:09;;;;;;;3.57;3.27;;;27.30;51.40;;;;;;5053829;28;20477;-57
2022/08/12 08:18:37;;;;;;;3.47;3.00;;;27.90;51.10;;;;;;5053960;28;20441;-57
2022/08/12 08:21:05;;;;;;;7.83;3.50;;;28.20;49.80;;;;;;5053816;28;20477;-57
2022/08/12 08:26:25;;;;;;;4.40;2.73;;;28.50;49.60;;;;;;5053897;28;20404;-57
2022/08/12 08:28:53;;;;;;;3.30;3.03;;;28.30;49.00;;;;;;5054058;28;20437;-56
2022/08/12 08:31:20;;;;;;;4.67;3.40;;;29.10;49.40;;;;;;5053821;28;20474;-56
2022/08/12 08:33:47;;;;;;;6.03;3.33;;;29.00;48.60;;;;;;5053498;28;20446;-57
2022/08/12 08:36:16;;;;;;;3.00;2.80;;;29.70;48.20;;;;;;5053495;28;20568;-56
2022/08/12 08:38:45;;;;;;;3.00;2.70;;;29.70;48.20;;;;;;5053804;28;20938;-56
2022/08/12 08:43:59;;;;;;;5.60;3.47;;;29.80;48.10;;;;;;5053256;28;20465;-57
2022/08/12 08:46:27;;;;;;;3.60;3.30;;;30.90;46.80;;;;;;5053315;28;20991;-57
2022/08/12 08:48:55;;;;;;;4.43;3.03;;;30.90;46.70;;;;;;5053303;28;20832;-57
2022/08/12 08:51:25;;;;;;;4.00;3.10;;;30.70;45.70;;;;;;5053207;28;20477;-56
2022/08/12 08:53:53;;;;;;;3.33;2.80;;;30.70;46.40;;;;;;5053605;28;20457;-56
2022/08/12 08:56:20;;;;;;;3.10;2.90;;;30.70;46.20;;;;;;5053662;28;20538;-56
2022/08/12 08:58:48;;;;;;;4.50;2.80;;;30.10;45.80;;;;;;5053523;28;20449;-57
2022/08/12 09:01:20;;;;;;;3.60;2.70;;;30.10;45.70;;;;;;5053042;28;20468;-56
2022/08/12 09:03:47;;;;;;;2.63;2.43;;;30.30;45.90;;;;;;5053316;28;20433;-57
2022/08/12 09:06:15;;;;;;;6.70;3.37;;;30.50;45.80;;;;;;5053415;28;20848;-56
2022/08/12 09:08:42;;;;;;;3.30;2.80;;;30.30;45.40;;;;;;5053324;28;20453;-56
2022/08/12 09:13:54;;;;;;;2.70;2.50;;;30.40;44.40;;;;;;5002442;28;20432;-56
2022/08/12 09:16:23;;;;;;;2.60;2.40;;;30.50;44.30;;;;;;5053212;28;20517;-57
2022/08/12 09:18:50;;;;;;;3.30;2.80;;;30.70;44.80;;;;;;5052796;28;20476;-56
2022/08/12 09:21:17;;;;;;;3.10;2.33;;;31.10;44.00;;;;;;5052733;28;20552;-56
2022/08/12 09:23:45;;;;;;;3.00;2.60;;;31.10;44.30;;;;;;5052897;28;20926;-56
2022/08/12 09:26:14;;;;;;;4.87;2.60;;;31.40;44.10;;;;;;5052713;28;20467;-56
2022/08/12 09:28:46;;;;;;;6.50;2.90;;;31.70;43.30;;;;;;5053082;28;20449;-56
2022/08/12 09:31:13;;;;;;;3.80;2.60;;;31.60;43.20;;;;;;5053118;28;20523;-57
2022/08/12 09:33:42;;;;;;;5.40;2.53;;;31.50;42.80;;;;;;5052609;28;20449;-56
2022/08/12 09:36:09;;;;;;;2.83;2.63;;;31.90;42.40;;;;;;5052724;28;20519;-56
2022/08/12 09:38:37;;;;;;;4.60;2.90;;;31.60;42.60;;;;;;5052904;28;20455;-57
2022/08/12 09:41:04;;;;;;;2.77;2.57;;;31.90;42.30;;;;;;5053089;28;20485;-56
2022/08/12 09:46:17;;;;;;;3.30;2.73;;;32.10;41.80;;;;;;5052591;28;20404;-56
2022/08/12 09:48:45;;;;;;;3.70;2.50;;;32.00;42.30;;;;;;5052224;28;20643;-57
2022/08/12 09:51:16;;;;;;;2.87;2.60;;;31.80;42.10;;;;;;5052616;28;21039;-57
2022/08/12 09:53:43;;;;;;;3.60;2.30;;;31.90;42.60;;;;;;5052455;28;20491;-57
2022/08/12 09:56:16;;;;;;;2.77;2.57;;;32.10;42.20;;;;;;5052691;28;20531;-57
2022/08/12 09:58:46;;;;;;;2.90;2.23;;;32.20;41.80;;;;;;5052839;28;20433;-56
2022/08/12 10:01:14;;;;;;;2.63;2.37;;;32.30;42.30;;;;;;5052706;28;20512;-56
2022/08/12 10:03:42;;;;;;;2.93;2.73;;;;;;;;;;5052257;28;20507;-57
2022/08/12 10:06:11;;;;;;;2.53;2.33;;;32.80;41.30;;;;;;5052508;28;20445;-56
2022/08/12 10:08:39;;;;;;;5.90;2.33;;;33.00;42.10;;;;;;5052771;28;20847;-57
2022/08/12 10:13:54;;;;;;;4.43;2.80;;;33.20;41.70;;;;;;5052847;28;20460;-56
2022/08/12 10:16:23;;;;;;;2.80;2.60;;;33.10;41.10;;;;;;5052611;28;20488;-57
2022/08/12 10:18:52;;;;;;;3.53;2.90;;;32.70;40.80;;;;;;5052472;28;21010;-56
2022/08/12 10:21:22;;;;;;;6.10;2.80;;;32.20;41.40;;;;;;5052539;28;20504;-56
2022/08/12 10:23:51;;;;;;;5.27;2.40;;;32.60;41.70;;;;;;5054922;28;20449;-57
2022/08/12 10:31:59;;;;;;;2.70;2.43;;;32.50;41.90;;;;;;5047325;28;20479;-56
2022/08/12 10:34:27;;;;;;;4.53;2.93;;;32.80;41.30;;;;;;5055867;28;20976;-56
2022/08/12 10:36:58;;;;;;;3.37;2.97;;;33.00;41.70;;;;;;5055701;28;20472;-57
2022/08/12 10:39:30;;;;;;;2.90;2.50;;;32.70;41.30;;;;;;5055541;28;20591;-56
2022/08/12 10:44:43;;;;;;;3.40;3.13;;;33.00;41.50;;;;;;5055704;28;20455;-56
2022/08/12 10:47:10;;;;;;;2.70;2.50;;;33.20;41.50;;;;;;5055567;28;20547;-56
2022/08/12 10:49:37;;;;;;;3.53;2.70;;;33.30;41.30;;;;;;5055463;28;20794;-57
2022/08/12 10:52:06;;;;;;;3.60;2.73;;;33.50;40.90;;;;;;5055203;28;20472;-56
2022/08/12 10:54:34;;;;;;;9.47;2.60;;;33.50;41.20;;;;;;5055314;28;20457;-56
2022/08/12 10:57:02;;;;;;;2.83;2.53;;;33.30;40.50;;;;;;5055543;28;20537;-56
2022/08/12 10:59:29;;;;;;;4.20;2.93;;;33.30;40.60;;;;;;5055104;28;20506;-56
2022/08/12 11:01:58;;;;;;;2.47;2.27;;;33.40;39.90;;;;;;5055291;28;20457;-56
2022/08/12 11:04:28;;;;;;;3.27;2.50;;;33.70;39.80;;;;;;5055503;28;20453;-56
2022/08/12 11:06:55;;;;;;;4.30;2.70;;;32.90;40.60;;;;;;5055211;28;20841;-56
2022/08/12 11:09:26;;;;;;;3.63;2.23;;;32.80;41.40;;;;;;5054784;28;20535;-56
2022/08/12 11:11:54;;;;;;;2.77;2.43;;;33.50;40.50;;;;;;5055151;28;20464;-56
2022/08/12 11:14:27;;;;;;;3.10;2.70;;;33.70;39.80;;;;;;5054881;28;20456;-56
2022/08/12 11:16:56;;;;;;;3.00;2.30;;;33.40;40.40;;;;;;5055361;28;20538;-56
2022/08/12 11:19:23;;;;;;;3.43;2.57;;;34.00;40.10;;;;;;5055447;28;20457;-56
2022/08/12 11:21:52;;;;;;;6.63;3.17;;;34.10;40.30;;;;;;5054890;28;20476;-56
2022/08/12 11:24:20;;;;;;;3.30;2.03;;;34.20;39.20;;;;;;5055068;28;20845;-56
2022/08/12 11:26:49;;;;;;;3.03;2.73;;;34.10;40.10;;;;;;5055235;28;20445;-57
2022/08/12 11:29:16;;;;;;;2.50;2.30;;;34.00;39.50;;;;;;5055156;28;20782;-57
2022/08/12 11:31:44;;;;;;;2.80;2.37;;;34.00;39.70;;;;;;5055002;28;20515;-56
2022/08/12 11:34:11;;;;;;;3.43;2.37;;;33.60;39.60;;;;;;5054526;28;20813;-56
2022/08/12 11:36:39;;;;;;;5.50;3.20;;;33.60;39.40;;;;;;5054640;28;20512;-57
2022/08/12 11:39:06;;;;;;;4.00;2.40;;;33.50;39.40;;;;;;5054534;28;20448;-57
2022/08/12 11:41:37;;;;;;;5.83;2.50;;;33.80;39.10;;;;;;5054448;28;20504;-57
2022/08/12 11:44:06;;;;;;;2.63;2.43;;;;;;;;;;5054517;28;20437;-58
2022/08/12 11:46:36;;;;;;;3.10;2.90;;;32.20;39.20;;;;;;5054401;28;20946;-57
2022/08/12 11:49:04;;;;;;;3.27;1.90;;;32.60;39.20;;;;;;5053915;28;20965;-57
2022/08/12 11:51:32;;;;;;;6.73;2.57;;;32.80;39.40;;;;;;5054349;28;20859;-57
2022/08/12 11:53:59;;;;;;;6.17;2.57;;;32.80;39.30;;;;;;5054816;28;20929;-57
2022/08/12 11:56:27;;;;;;;2.77;2.43;;;33.00;40.20;;;;;;5054463;28;20567;-57
2022/08/12 11:58:54;;;;;;;3.43;2.30;;;33.20;39.00;;;;;;5054278;28;20546;-57
2022/08/12 12:01:23;;;;;;;2.80;2.23;;;33.60;39.10;;;;;;5054267;28;20973;-57
2022/08/12 12:03:50;;;;;;;2.20;2.00;;;33.20;39.40;;;;;;5054279;28;20952;-57
2022/08/12 12:06:19;;;;;;;2.80;2.50;;;33.70;38.40;;;;;;5054079;28;20537;-58
2022/08/12 12:08:47;;;;;;;5.20;2.23;;;33.50;37.90;;;;;;5054442;28;20869;-57
2022/08/12 12:11:15;;;;;;;2.93;2.20;;;33.20;38.00;;;;;;5054528;28;20477;-57
2022/08/12 12:13:42;;;;;;;2.20;1.93;;;33.10;38.60;;;;;;5054128;28;20930;-57
2022/08/12 12:16:11;;;;;;;2.53;2.33;;;33.30;38.40;;;;;;5053888;28;20488;-57
2022/08/12 12:18:39;;;;;;;4.80;2.57;;;33.60;38.90;;;;;;5053970;28;20437;-57
2022/08/12 12:21:08;;;;;;;3.23;2.53;;;33.80;38.20;;;;;;5054008;28;20469;-57
2022/08/12 12:23:36;;;;;;;2.43;2.23;;;33.60;38.00;;;;;;5053997;28;20926;-57
2022/08/12 12:26:04;;;;;;;5.00;2.63;;;32.80;38.80;;;;;;5054107;28;20503;-57
2022/08/12 12:28:31;;;;;;;2.60;2.23;;;33.20;38.80;;;;;;5053670;28;20526;-57
2022/08/12 12:31:03;;;;;;;2.17;2.03;;;32.70;38.60;;;;;;5053548;28;20445;-55
2022/08/12 12:33:31;;;;;;;2.47;2.00;;;32.60;38.70;;;;;;5053690;28;20449;-57
2022/08/12 12:35:59;;;;;;;2.70;2.40;;;32.70;39.00;;;;;;5053310;28;20454;-56
2022/08/12 12:38:27;;;;;;;2.90;2.00;;;32.60;38.40;;;;;;5053564;28;20477;-55
2022/08/12 12:40:54;;;;;;;2.17;2.07;;;32.50;38.60;;;;;;5053290;28;20520;-55
2022/08/12 12:43:21;;;;;;;4.37;2.50;;;32.40;38.80;;;;;;5053506;28;20851;-55
2022/08/12 12:45:49;;;;;;;2.63;2.40;;;32.60;38.80;;;;;;5052884;28;20460;-55
2022/08/12 12:48:18;;;;;;;3.20;2.30;;;33.00;38.90;;;;;;5053305;28;20473;-55
2022/08/12 12:50:47;;;;;;;2.60;2.23;;;33.20;38.80;;;;;;5053355;28;20588;-56
2022/08/12 12:53:20;;;;;;;4.50;2.40;;;32.90;39.10;;;;;;5053223;28;20471;-56
2022/08/12 12:55:48;;;;;;;3.73;2.60;;;;;;;;;;5053130;28;20525;-56
2022/08/12 12:58:16;;;;;;;2.77;2.57;;;31.20;39.50;;;;;;5053490;28;20489;-56
2022/08/12 13:00:44;;;;;;;2.97;2.77;;;30.90;40.00;;;;;;5053125;28;20508;-56
2022/08/12 13:03:12;;;;;;;3.17;2.30;;;30.80;40.90;;;;;;5053023;28;20484;-55
2022/08/12 13:05:42;;;;;;;2.93;2.43;;;30.90;40.50;;;;;;5053184;28;20445;-55
2022/08/12 13:08:23;;;;;;;2.77;2.50;;;30.80;41.00;;;;;;5053013;28;20453;-56
2022/08/12 13:10:51;;;;;;;2.80;2.60;;;31.10;40.70;;;;;;5053184;28;20480;-56
2022/08/12 13:13:18;;;;;;;4.80;2.40;;;31.80;40.60;;;;;;5053111;28;20449;-56
2022/08/12 13:15:48;;;;;;;4.80;2.13;;;32.00;40.30;;;;;;5052908;28;20451;-56
2022/08/12 13:18:16;;;;;;;7.70;2.33;;;31.80;40.40;;;;;;5052919;28;20513;-56
2022/08/12 13:20:44;;;;;;;5.93;2.30;;;31.70;40.20;;;;;;5052769;28;20519;-56
2022/08/12 13:23:11;;;;;;;5.80;2.30;;;31.90;40.40;;;;;;5053202;28;20449;-56
2022/08/12 13:25:41;;;;;;;3.60;2.30;;;;;;;;;;5052711;28;20996;-55
2022/08/12 13:28:09;;;;;;;3.30;3.03;;;30.60;40.40;;;;;;5052943;28;20445;-56
2022/08/12 13:30:37;;;;;;;2.53;2.20;;;30.70;40.80;;;;;;5052403;28;20527;-56
2022/08/12 13:33:04;;;;;;;2.73;2.50;;;31.00;40.50;;;;;;5053115;28;20862;-56
2022/08/12 13:35:34;;;;;;;3.87;2.40;;;30.60;40.30;;;;;;5052579;28;20484;-56
2022/08/12 13:38:02;;;;;;;6.90;2.80;;;31.10;40.40;;;;;;5052813;28;20507;-56
2022/08/12 13:40:31;;;;;;;3.43;2.60;;;31.10;40.10;;;;;;5053064;28;20527;-56
2022/08/12 13:43:00;;;;;;;3.30;2.20;;;30.70;40.60;;;;;;5052454;28;20446;-56
2022/08/12 13:45:28;;;;;;;6.10;2.57;;;;;;;;;;5052426;28;20473;-55
2022/08/12 13:47:58;;;;;;;5.43;2.80;;;30.20;40.60;;;;;;5052342;28;20473;-56
2022/08/12 13:50:31;;;;;;;2.73;2.00;;;29.80;41.10;;;;;;5052916;28;20481;-56
2022/08/12 13:53:00;;;;;;;2.80;2.60;;;29.60;41.10;;;;;;5052496;28;20840;-56
2022/08/12 13:55:27;;;;;;;2.60;2.40;;;29.40;41.50;;;;;;5052251;28;20452;-56
2022/08/12 13:57:55;;;;;;;3.87;2.93;;;29.30;41.60;;;;;;5053809;28;20572;-56
2022/08/12 14:00:26;;;;;;;2.90;2.40;;;29.40;41.50;;;;;;5056650;28;20477;-56
2022/08/12 14:02:53;;;;;;;5.50;2.47;;;30.00;41.30;;;;;;5056695;28;20833;-56
2022/08/12 14:05:21;;;;;;;2.47;2.27;;;30.00;41.10;;;;;;5056687;28;20514;-56
2022/08/12 14:07:57;;;;;;;6.00;2.77;;;30.40;41.20;;;;;;5056521;28;20471;-56
2022/08/12 14:10:36;;;;;;;3.03;2.30;;;30.60;40.60;;;;;;5056695;28;20530;-56
2022/08/12 14:13:05;;;;;;;3.17;2.60;;;30.60;40.80;;;;;;5056194;28;20528;-56
2022/08/12 14:15:34;;;;;;;2.40;2.20;;;30.40;40.80;;;;;;5056293;28;20445;-56
2022/08/12 14:18:09;;;;;;;2.70;2.30;;;30.10;40.90;;;;;;5056184;28;20575;-56
2022/08/12 14:20:37;;;;;;;3.10;2.10;;;29.60;40.90;;;;;;5055966;28;20492;-56
2022/08/12 14:23:04;;;;;;;2.83;2.37;;;29.70;41.30;;;;;;5056217;28;20453;-56
2022/08/12 14:25:31;;;;;;;4.10;2.50;;;29.60;41.40;;;;;;5056014;28;20965;-56
2022/08/12 14:28:10;;;;;;;3.17;2.70;;;29.70;41.30;;;;;;5055950;28;20445;-56
2022/08/12 14:30:52;;;;;;;3.50;2.60;;;29.60;41.30;;;;;;5055661;28;21007;-56
2022/08/12 14:33:20;;;;;;;2.60;2.20;;;29.70;41.10;;;;;;5055987;28;20429;-56
2022/08/12 14:35:48;;;;;;;2.77;2.50;;;29.60;41.30;;;;;;5056149;28;20449;-56
2022/08/12 14:38:19;;;;;;;2.70;2.50;;;29.50;41.20;;;;;;5056246;28;20477;-56
2022/08/12 14:40:47;;;;;;;2.77;2.50;;;29.50;41.20;;;;;;5056239;28;20476;-56
2022/08/12 14:43:14;;;;;;;9.10;2.40;;;29.20;40.70;;;;;;5055736;28;20430;-56
2022/08/12 14:45:42;;;;;;;2.17;1.97;;;29.00;41.10;;;;;;5055648;28;20433;-56
2022/08/12 14:48:13;;;;;;;2.87;2.67;;;29.10;41.00;;;;;;5055719;28;20473;-56
2022/08/12 14:50:41;;;;;;;2.57;2.37;;;29.30;41.10;;;;;;5055875;28;20495;-56